地図

経路データ

SID SEASON NUMBER BASIN SUBBASIN NAME ISO_TIME NATURE LAT LON WMO_WIND WMO_PRES WMO_AGENCY TRACK_TYPE DIST2LAND LANDFALL IFLAG USA_AGENCY USA_ATCF_ID USA_LAT USA_LON USA_RECORD USA_STATUS USA_WIND USA_PRES USA_SSHS USA_R34_NE USA_R34_SE USA_R34_SW USA_R34_NW USA_R50_NE USA_R50_SE USA_R50_SW USA_R50_NW USA_R64_NE USA_R64_SE USA_R64_SW USA_R64_NW USA_POCI USA_ROCI USA_RMW USA_EYE TOKYO_LAT TOKYO_LON TOKYO_GRADE TOKYO_WIND TOKYO_PRES TOKYO_R50_DIR TOKYO_R50_LONG TOKYO_R50_SHORT TOKYO_R30_DIR TOKYO_R30_LONG TOKYO_R30_SHORT TOKYO_LAND CMA_LAT CMA_LON CMA_CAT CMA_WIND CMA_PRES HKO_LAT HKO_LON HKO_CAT HKO_WIND HKO_PRES NEWDELHI_LAT NEWDELHI_LON NEWDELHI_GRADE NEWDELHI_WIND NEWDELHI_PRES NEWDELHI_CI NEWDELHI_DP NEWDELHI_POCI REUNION_LAT REUNION_LON REUNION_TYPE REUNION_WIND REUNION_PRES REUNION_TNUM REUNION_CI REUNION_RMW REUNION_R34_NE REUNION_R34_SE REUNION_R34_SW REUNION_R34_NW REUNION_R50_NE REUNION_R50_SE REUNION_R50_SW REUNION_R50_NW REUNION_R64_NE REUNION_R64_SE REUNION_R64_SW REUNION_R64_NW BOM_LAT BOM_LON BOM_TYPE BOM_WIND BOM_PRES BOM_TNUM BOM_CI BOM_RMW BOM_R34_NE BOM_R34_SE BOM_R34_SW BOM_R34_NW BOM_R50_NE BOM_R50_SE BOM_R50_SW BOM_R50_NW BOM_R64_NE BOM_R64_SE BOM_R64_SW BOM_R64_NW BOM_ROCI BOM_POCI BOM_EYE BOM_POS_METHOD BOM_PRES_METHOD NADI_LAT NADI_LON NADI_CAT NADI_WIND NADI_PRES WELLINGTON_LAT WELLINGTON_LON WELLINGTON_WIND WELLINGTON_PRES DS824_LAT DS824_LON DS824_STAGE DS824_WIND DS824_PRES TD9636_LAT TD9636_LON TD9636_STAGE TD9636_WIND TD9636_PRES TD9635_LAT TD9635_LON TD9635_WIND TD9635_PRES TD9635_ROCI NEUMANN_LAT NEUMANN_LON NEUMANN_CLASS NEUMANN_WIND NEUMANN_PRES MLC_LAT MLC_LON MLC_CLASS MLC_WIND MLC_PRES USA_GUST BOM_GUST BOM_GUST_PER REUNION_GUST REUNION_GUST_PER USA_SEAHGT USA_SEARAD_NE USA_SEARAD_SE USA_SEARAD_SW USA_SEARAD_NW STORM_SPEED STORM_DIR
1863032S14058 1863 5 SI MM NOT_NAMED 1863-02-01 06:00:00 NR -14.0000 57.8000 main 682 649 __________O___ -1 -14.0000 57.8000 7 9 220
1863032S14058 1863 5 SI MM NOT_NAMED 1863-02-01 09:00:00 NR -14.3566 57.4866 main 637 605 __________P___ -1 -14.3566 57.4866 7 9 220
1863032S14058 1863 5 SI MM NOT_NAMED 1863-02-01 12:00:00 NR -14.7204 57.1781 main 605 563 __________P___ -1 -14.7204 57.1781 7 10 218
1863032S14058 1863 5 SI MM NOT_NAMED 1863-02-01 15:00:00 NR -15.0990 56.8806 main 563 523 __________P___ -1 -15.0990 56.8806 7 10 216
1863032S14058 1863 5 SI MM NOT_NAMED 1863-02-01 18:00:00 NR -15.5000 56.6000 main 523 484 __________O___ -1 -15.5000 56.6000 7 10 212
1863032S14058 1863 5 SI MM NOT_NAMED 1863-02-01 21:00:00 NR -15.9267 56.3412 main 486 446 __________P___ -1 -15.9267 56.3412 7 10 209
1863032S14058 1863 5 SI MM NOT_NAMED 1863-02-02 00:00:00 NR -16.3649 56.1050 main 439 405 __________P___ -1 -16.3649 56.1050 7 10 206
1863032S14058 1863 5 SI MM NOT_NAMED 1863-02-02 03:00:00 NR -16.7955 55.8912 main 405 375 __________P___ -1 -16.7955 55.8912 7 9 205
1863032S14058 1863 5 SI MM NOT_NAMED 1863-02-02 06:00:00 NR -17.2000 55.7000 main 375 352 __________O___ -1 -17.2000 55.7000 7 8 205
1863032S14058 1863 5 SI MM NOT_NAMED 1863-02-02 09:00:00 NR -17.5496 55.5239 main 359 330 __________P___ -1 -17.5496 55.5239 7 7 205
1863032S14058 1863 5 SI MM NOT_NAMED 1863-02-02 12:00:00 NR -17.8723 55.3694 main 330 313 __________P___ -1 -17.8723 55.3694 7 7 204
1863032S14058 1863 5 SI MM NOT_NAMED 1863-02-02 15:00:00 NR -18.1840 55.2302 main 313 280 __________P___ -1 -18.1840 55.2302 7 7 202
1863032S14058 1863 5 SI MM NOT_NAMED 1863-02-02 18:00:00 NR -18.5000 55.1000 main 280 248 __________O___ -1 -18.5000 55.1000 7 6 203
1863032S14058 1863 5 SI MM NOT_NAMED 1863-02-02 21:00:00 NR -18.7738 54.9593 main 248 227 __________P___ -1 -18.7738 54.9593 7 6 205
1863032S14058 1863 5 SI MM NOT_NAMED 1863-02-03 00:00:00 NR -19.0651 54.8270 main 218 189 __________P___ -1 -19.0651 54.8270 7 7 200
1863032S14058 1863 5 SI MM NOT_NAMED 1863-02-03 03:00:00 NR -19.4239 54.7062 main 189 143 __________P___ -1 -19.4239 54.7062 7 9 194
1863032S14058 1863 5 SI MM NOT_NAMED 1863-02-03 06:00:00 NR -19.9000 54.6000 main 143 98 __________O___ -1 -19.9000 54.6000 7 12 191
1863032S14058 1863 5 SI MM NOT_NAMED 1863-02-03 09:00:00 NR -20.5731 54.4714 main 91 82 __________P___ -1 -20.5731 54.4714 7 15 189
1863032S14058 1863 5 SI MM NOT_NAMED 1863-02-03 12:00:00 NR -21.3601 54.3622 main 89 89 __________P___ -1 -21.3601 54.3622 7 16 186
1863032S14058 1863 5 SI MM NOT_NAMED 1863-02-03 15:00:00 NR -22.1920 54.2967 main 144 144 __________P___ -1 -22.1920 54.2967 7 17 182
1863032S14058 1863 5 SI MM NOT_NAMED 1863-02-03 18:00:00 NR -23.0000 54.3000 main 216 216 __________O___ -1 -23.0000 54.3000 7 16 177
1863032S14058 1863 5 SI MM NOT_NAMED 1863-02-03 21:00:00 NR -23.7345 54.3974 main 283 283 __________P___ -1 -23.7345 54.3974 7 15 170
1863032S14058 1863 5 SI MM NOT_NAMED 1863-02-04 00:00:00 NR -24.4274 54.5654 main 350 350 __________P___ -1 -24.4274 54.5654 7 14 165
1863032S14058 1863 5 SI MM NOT_NAMED 1863-02-04 03:00:00 NR -25.0565 54.7758 main 421 421 __________P___ -1 -25.0565 54.7758 7 12 161
1863032S14058 1863 5 SI MM NOT_NAMED 1863-02-04 06:00:00 NR -25.6000 55.0000 main 473 473 __________O___ -1 -25.6000 55.0000 7 11 159
1863032S14058 1863 5 SI MM NOT_NAMED 1863-02-04 09:00:00 NR -26.0483 55.1975 main 515 515 __________P___ -1 -26.0483 55.1975 7 9 156
1863032S14058 1863 5 SI MM NOT_NAMED 1863-02-04 12:00:00 NR -26.4124 55.4007 main 559 559 __________P___ -1 -26.4124 55.4007 7 8 152
1863032S14058 1863 5 SI MM NOT_NAMED 1863-02-04 15:00:00 NR -26.7202 55.6036 main 592 592 __________P___ -1 -26.7202 55.6036 7 7 149
1863032S14058 1863 5 SI MM NOT_NAMED 1863-02-04 18:00:00 NR -27.0000 55.8000 main 626 626 __________O___ -1 -27.0000 55.8000 7 6 153
1863032S14058 1863 5 SI MM NOT_NAMED 1863-02-04 21:00:00 NR -27.2504 55.9004 main 660 660 __________P___ -1 -27.2504 55.9004 7 5 160
1863032S14058 1863 5 SI MM NOT_NAMED 1863-02-05 00:00:00 NR -27.4875 56.0058 main 682 682 __________P___ -1 -27.4875 56.0058 7 6 154
1863032S14058 1863 5 SI MM NOT_NAMED 1863-02-05 03:00:00 NR -27.7559 56.1830 main 717 717 __________P___ -1 -27.7559 56.1830 7 8 144
1863032S14058 1863 5 SI MM NOT_NAMED 1863-02-05 06:00:00 NR -28.1000 56.5000 main 754 754 __________O___ -1 -28.1000 56.5000 7 11 138
1863032S14058 1863 5 SI MM NOT_NAMED 1863-02-05 09:00:00 NR -28.6013 57.0530 main 818 818 __________P___ -1 -28.6013 57.0530 7 15 134
1863032S14058 1863 5 SI MM NOT_NAMED 1863-02-05 12:00:00 NR -29.1727 57.7517 main 898 898 __________P___ -1 -29.1727 57.7517 7 17 132
1863032S14058 1863 5 SI MM NOT_NAMED 1863-02-05 15:00:00 NR -29.7575 58.5252 main 982 982 __________P___ -1 -29.7575 58.5252 7 18 130
1863032S14058 1863 5 SI MM NOT_NAMED 1863-02-05 18:00:00 NR -30.3000 59.3000 main 1060 1060 __________O___ -1 -30.3000 59.3000 7 16 128
1863032S14058 1863 5 SI MM NOT_NAMED 1863-02-05 21:00:00 NR -30.7594 60.0154 main 1137 1137 __________P___ -1 -30.7594 60.0154 7 15 126
1863032S14058 1863 5 SI MM NOT_NAMED 1863-02-06 00:00:00 NR -31.1470 60.6741 main 1196 1196 __________P___ -1 -31.1470 60.6741 7 13 124
1863032S14058 1863 5 SI MM NOT_NAMED 1863-02-06 03:00:00 NR -31.4862 61.2956 main 1261 1261 __________P___ -1 -31.4862 61.2956 7 12 122
1863032S14058 1863 5 SI MM NOT_NAMED 1863-02-06 06:00:00 NR -31.8000 61.9000 main 1318 __________O___ -1 -31.8000 61.9000 7 12 121

IBTrACS Databaseについて

本データベースは、米国NOAAが公開する1842年以降の世界の熱帯低気圧のベストトラックデータアーカイブInternational Best Track Archive for Climate Stewardship (IBTrACS)を、ウェブで閲覧しやすい形式に変換したものです。

最終更新日:2021-10-08